sensor_id;sensor_type;location;lat;lon;timestamp;P1;durP1;ratioP1;P2;durP2;ratioP2
32094;SDS011;18608;53.688;10.748;2023-01-19T00:02:20;23.60;;;11.53;;
32094;SDS011;18608;53.688;10.748;2023-01-19T00:04:46;18.23;;;10.37;;
32094;SDS011;18608;53.688;10.748;2023-01-19T00:07:11;25.13;;;10.60;;
32094;SDS011;18608;53.688;10.748;2023-01-19T00:09:37;17.53;;;10.87;;
32094;SDS011;18608;53.688;10.748;2023-01-19T00:12:03;10.10;;;8.50;;
32094;SDS011;18608;53.688;10.748;2023-01-19T00:14:30;19.13;;;9.80;;
32094;SDS011;18608;53.688;10.748;2023-01-19T00:16:56;14.50;;;8.20;;
32094;SDS011;18608;53.688;10.748;2023-01-19T00:19:22;17.30;;;10.33;;
32094;SDS011;18608;53.688;10.748;2023-01-19T00:21:47;16.47;;;9.73;;
32094;SDS011;18608;53.688;10.748;2023-01-19T00:24:13;18.53;;;10.33;;
32094;SDS011;18608;53.688;10.748;2023-01-19T00:26:39;18.13;;;9.70;;
32094;SDS011;18608;53.688;10.748;2023-01-19T00:29:07;15.00;;;9.40;;
32094;SDS011;18608;53.688;10.748;2023-01-19T00:31:34;20.20;;;10.97;;
32094;SDS011;18608;53.688;10.748;2023-01-19T00:34:00;19.40;;;10.77;;
32094;SDS011;18608;53.688;10.748;2023-01-19T00:36:26;15.70;;;10.43;;
32094;SDS011;18608;53.688;10.748;2023-01-19T00:38:52;19.10;;;10.37;;
32094;SDS011;18608;53.688;10.748;2023-01-19T00:41:17;18.27;;;10.87;;
32094;SDS011;18608;53.688;10.748;2023-01-19T00:43:43;21.20;;;10.67;;
32094;SDS011;18608;53.688;10.748;2023-01-19T00:46:08;17.67;;;9.40;;
32094;SDS011;18608;53.688;10.748;2023-01-19T00:48:34;18.33;;;11.10;;
32094;SDS011;18608;53.688;10.748;2023-01-19T00:51:00;18.23;;;9.47;;
32094;SDS011;18608;53.688;10.748;2023-01-19T00:53:25;18.40;;;9.90;;
32094;SDS011;18608;53.688;10.748;2023-01-19T00:55:53;11.47;;;9.50;;
32094;SDS011;18608;53.688;10.748;2023-01-19T00:58:19;15.20;;;9.00;;
32094;SDS011;18608;53.688;10.748;2023-01-19T01:00:46;15.37;;;9.07;;
32094;SDS011;18608;53.688;10.748;2023-01-19T01:03:12;19.43;;;10.10;;
32094;SDS011;18608;53.688;10.748;2023-01-19T01:05:39;17.10;;;9.57;;
32094;SDS011;18608;53.688;10.748;2023-01-19T01:08:06;14.67;;;8.90;;
32094;SDS011;18608;53.688;10.748;2023-01-19T01:10:31;16.73;;;9.70;;
32094;SDS011;18608;53.688;10.748;2023-01-19T01:12:57;16.93;;;9.40;;
32094;SDS011;18608;53.688;10.748;2023-01-19T01:15:22;15.53;;;9.70;;
32094;SDS011;18608;53.688;10.748;2023-01-19T01:17:50;15.50;;;10.10;;
32094;SDS011;18608;53.688;10.748;2023-01-19T01:20:17;13.47;;;8.87;;
32094;SDS011;18608;53.688;10.748;2023-01-19T01:22:45;14.60;;;8.90;;
32094;SDS011;18608;53.688;10.748;2023-01-19T01:25:17;13.73;;;8.90;;
32094;SDS011;18608;53.688;10.748;2023-01-19T01:27:44;14.93;;;8.90;;
32094;SDS011;18608;53.688;10.748;2023-01-19T01:30:10;13.17;;;8.60;;
32094;SDS011;18608;53.688;10.748;2023-01-19T01:32:38;19.97;;;10.53;;
32094;SDS011;18608;53.688;10.748;2023-01-19T01:35:05;22.13;;;9.73;;
32094;SDS011;18608;53.688;10.748;2023-01-19T01:37:32;14.73;;;9.20;;
32094;SDS011;18608;53.688;10.748;2023-01-19T01:39:58;14.00;;;8.80;;
32094;SDS011;18608;53.688;10.748;2023-01-19T01:42:25;18.93;;;9.50;;
32094;SDS011;18608;53.688;10.748;2023-01-19T01:44:53;15.17;;;9.27;;
32094;SDS011;18608;53.688;10.748;2023-01-19T01:47:35;26.40;;;10.80;;
32094;SDS011;18608;53.688;10.748;2023-01-19T01:50:24;13.70;;;9.30;;
32094;SDS011;18608;53.688;10.748;2023-01-19T01:52:51;14.37;;;8.93;;
32094;SDS011;18608;53.688;10.748;2023-01-19T01:55:31;13.77;;;9.17;;
32094;SDS011;18608;53.688;10.748;2023-01-19T01:58:02;13.80;;;9.30;;
32094;SDS011;18608;53.688;10.748;2023-01-19T02:00:30;18.03;;;9.10;;
32094;SDS011;18608;53.688;10.748;2023-01-19T02:03:14;19.87;;;10.83;;
32094;SDS011;18608;53.688;10.748;2023-01-19T02:05:40;15.90;;;9.40;;
32094;SDS011;18608;53.688;10.748;2023-01-19T02:11:07;13.17;;;8.73;;
32094;SDS011;18608;53.688;10.748;2023-01-19T02:13:51;11.30;;;8.50;;
32094;SDS011;18608;53.688;10.748;2023-01-19T02:16:17;19.83;;;10.17;;
32094;SDS011;18608;53.688;10.748;2023-01-19T02:18:43;15.77;;;9.13;;
32094;SDS011;18608;53.688;10.748;2023-01-19T02:26:14;21.33;;;9.30;;
32094;SDS011;18608;53.688;10.748;2023-01-19T02:28:50;12.57;;;8.10;;
32094;SDS011;18608;53.688;10.748;2023-01-19T02:31:23;12.20;;;8.77;;
32094;SDS011;18608;53.688;10.748;2023-01-19T02:33:49;14.63;;;9.17;;
32094;SDS011;18608;53.688;10.748;2023-01-19T02:36:16;17.00;;;9.00;;
32094;SDS011;18608;53.688;10.748;2023-01-19T02:38:47;13.83;;;8.13;;
32094;SDS011;18608;53.688;10.748;2023-01-19T02:41:16;13.87;;;7.80;;
32094;SDS011;18608;53.688;10.748;2023-01-19T02:43:45;20.90;;;9.80;;
32094;SDS011;18608;53.688;10.748;2023-01-19T02:46:13;12.47;;;7.70;;
32094;SDS011;18608;53.688;10.748;2023-01-19T02:48:42;16.83;;;9.13;;
32094;SDS011;18608;53.688;10.748;2023-01-19T02:51:13;15.43;;;9.20;;
32094;SDS011;18608;53.688;10.748;2023-01-19T02:53:52;14.40;;;8.97;;
32094;SDS011;18608;53.688;10.748;2023-01-19T02:59:03;14.83;;;8.70;;
32094;SDS011;18608;53.688;10.748;2023-01-19T03:10:22;11.80;;;8.97;;
32094;SDS011;18608;53.688;10.748;2023-01-19T03:15:45;17.73;;;9.37;;
32094;SDS011;18608;53.688;10.748;2023-01-19T03:18:15;20.83;;;9.33;;
32094;SDS011;18608;53.688;10.748;2023-01-19T03:20:46;15.90;;;8.87;;
32094;SDS011;18608;53.688;10.748;2023-01-19T03:23:14;10.40;;;7.37;;
32094;SDS011;18608;53.688;10.748;2023-01-19T03:25:42;11.63;;;9.27;;
32094;SDS011;18608;53.688;10.748;2023-01-19T03:28:10;11.67;;;8.50;;
32094;SDS011;18608;53.688;10.748;2023-01-19T03:30:40;16.03;;;9.20;;
32094;SDS011;18608;53.688;10.748;2023-01-19T03:33:17;13.13;;;8.60;;
32094;SDS011;18608;53.688;10.748;2023-01-19T03:36:00;13.60;;;8.10;;
32094;SDS011;18608;53.688;10.748;2023-01-19T03:38:31;11.17;;;8.20;;
32094;SDS011;18608;53.688;10.748;2023-01-19T03:41:01;16.07;;;8.17;;
32094;SDS011;18608;53.688;10.748;2023-01-19T03:43:30;17.67;;;9.40;;
32094;SDS011;18608;53.688;10.748;2023-01-19T03:45:57;14.23;;;8.83;;
32094;SDS011;18608;53.688;10.748;2023-01-19T03:48:25;14.40;;;9.00;;
32094;SDS011;18608;53.688;10.748;2023-01-19T03:50:50;14.93;;;9.33;;
32094;SDS011;18608;53.688;10.748;2023-01-19T03:53:19;8.93;;;7.80;;
32094;SDS011;18608;53.688;10.748;2023-01-19T03:55:47;14.23;;;8.67;;
32094;SDS011;18608;53.688;10.748;2023-01-19T03:58:15;14.83;;;9.60;;
32094;SDS011;18608;53.688;10.748;2023-01-19T04:00:41;18.73;;;10.00;;
32094;SDS011;18608;53.688;10.748;2023-01-19T04:03:09;13.37;;;8.57;;
32094;SDS011;18608;53.688;10.748;2023-01-19T04:05:38;13.83;;;9.20;;
32094;SDS011;18608;53.688;10.748;2023-01-19T04:08:04;13.53;;;9.30;;
32094;SDS011;18608;53.688;10.748;2023-01-19T04:10:30;11.03;;;8.27;;
32094;SDS011;18608;53.688;10.748;2023-01-19T04:12:59;13.80;;;9.73;;
32094;SDS011;18608;53.688;10.748;2023-01-19T04:15:25;13.60;;;9.97;;
32094;SDS011;18608;53.688;10.748;2023-01-19T04:17:52;17.90;;;10.07;;
32094;SDS011;18608;53.688;10.748;2023-01-19T04:20:17;12.80;;;7.83;;
32094;SDS011;18608;53.688;10.748;2023-01-19T04:22:43;12.40;;;9.00;;
32094;SDS011;18608;53.688;10.748;2023-01-19T04:25:08;12.57;;;9.33;;
32094;SDS011;18608;53.688;10.748;2023-01-19T04:27:35;15.20;;;9.07;;
32094;SDS011;18608;53.688;10.748;2023-01-19T04:30:01;15.50;;;9.17;;
32094;SDS011;18608;53.688;10.748;2023-01-19T04:32:28;13.03;;;8.87;;
32094;SDS011;18608;53.688;10.748;2023-01-19T04:34:54;19.70;;;8.77;;
32094;SDS011;18608;53.688;10.748;2023-01-19T04:37:19;13.03;;;9.43;;
32094;SDS011;18608;53.688;10.748;2023-01-19T04:39:46;14.97;;;8.90;;
32094;SDS011;18608;53.688;10.748;2023-01-19T04:42:11;12.10;;;10.10;;
32094;SDS011;18608;53.688;10.748;2023-01-19T04:44:37;11.50;;;8.63;;
32094;SDS011;18608;53.688;10.748;2023-01-19T04:47:03;20.03;;;8.53;;
32094;SDS011;18608;53.688;10.748;2023-01-19T04:49:28;16.83;;;9.37;;
32094;SDS011;18608;53.688;10.748;2023-01-19T04:51:54;14.40;;;9.20;;
32094;SDS011;18608;53.688;10.748;2023-01-19T04:54:20;19.07;;;10.27;;
32094;SDS011;18608;53.688;10.748;2023-01-19T04:56:46;13.97;;;9.67;;
32094;SDS011;18608;53.688;10.748;2023-01-19T04:59:12;15.27;;;9.37;;
32094;SDS011;18608;53.688;10.748;2023-01-19T05:01:37;13.90;;;8.53;;
32094;SDS011;18608;53.688;10.748;2023-01-19T05:04:03;13.00;;;9.20;;
32094;SDS011;18608;53.688;10.748;2023-01-19T05:06:31;17.50;;;11.00;;
32094;SDS011;18608;53.688;10.748;2023-01-19T05:08:57;14.80;;;9.53;;
32094;SDS011;18608;53.688;10.748;2023-01-19T05:11:23;19.63;;;10.37;;
32094;SDS011;18608;53.688;10.748;2023-01-19T05:13:48;11.47;;;9.13;;
32094;SDS011;18608;53.688;10.748;2023-01-19T05:16:14;17.80;;;10.30;;
32094;SDS011;18608;53.688;10.748;2023-01-19T05:18:39;16.40;;;9.33;;
32094;SDS011;18608;53.688;10.748;2023-01-19T05:21:06;18.33;;;9.90;;
32094;SDS011;18608;53.688;10.748;2023-01-19T05:23:32;18.20;;;9.77;;
32094;SDS011;18608;53.688;10.748;2023-01-19T05:25:58;15.97;;;9.20;;
32094;SDS011;18608;53.688;10.748;2023-01-19T05:28:26;16.33;;;9.50;;
32094;SDS011;18608;53.688;10.748;2023-01-19T05:30:52;14.00;;;10.20;;
32094;SDS011;18608;53.688;10.748;2023-01-19T05:33:19;15.13;;;10.00;;
32094;SDS011;18608;53.688;10.748;2023-01-19T05:35:46;14.63;;;9.10;;
32094;SDS011;18608;53.688;10.748;2023-01-19T05:38:14;15.67;;;9.90;;
32094;SDS011;18608;53.688;10.748;2023-01-19T05:40:39;17.93;;;11.10;;
32094;SDS011;18608;53.688;10.748;2023-01-19T05:43:05;20.63;;;10.13;;
32094;SDS011;18608;53.688;10.748;2023-01-19T05:45:31;26.33;;;11.40;;
32094;SDS011;18608;53.688;10.748;2023-01-19T05:47:56;19.47;;;9.73;;
32094;SDS011;18608;53.688;10.748;2023-01-19T05:50:22;14.10;;;10.17;;
32094;SDS011;18608;53.688;10.748;2023-01-19T05:52:48;18.20;;;10.27;;
32094;SDS011;18608;53.688;10.748;2023-01-19T05:55:13;20.77;;;10.60;;
32094;SDS011;18608;53.688;10.748;2023-01-19T05:57:40;14.53;;;10.20;;
32094;SDS011;18608;53.688;10.748;2023-01-19T06:00:07;22.37;;;12.27;;
32094;SDS011;18608;53.688;10.748;2023-01-19T06:02:33;17.53;;;12.87;;
32094;SDS011;18608;53.688;10.748;2023-01-19T06:04:59;24.77;;;10.80;;
32094;SDS011;18608;53.688;10.748;2023-01-19T06:07:24;12.67;;;10.00;;
32094;SDS011;18608;53.688;10.748;2023-01-19T06:09:50;26.13;;;10.10;;
32094;SDS011;18608;53.688;10.748;2023-01-19T06:12:15;19.30;;;11.90;;
32094;SDS011;18608;53.688;10.748;2023-01-19T06:14:41;14.80;;;10.43;;
32094;SDS011;18608;53.688;10.748;2023-01-19T06:17:06;18.30;;;12.13;;
32094;SDS011;18608;53.688;10.748;2023-01-19T06:19:32;17.60;;;11.33;;
32094;SDS011;18608;53.688;10.748;2023-01-19T06:21:58;19.37;;;11.70;;
32094;SDS011;18608;53.688;10.748;2023-01-19T06:24:24;19.60;;;11.13;;
32094;SDS011;18608;53.688;10.748;2023-01-19T06:26:51;18.43;;;11.87;;
32094;SDS011;18608;53.688;10.748;2023-01-19T06:29:17;16.43;;;10.80;;
32094;SDS011;18608;53.688;10.748;2023-01-19T06:31:43;20.00;;;11.67;;
32094;SDS011;18608;53.688;10.748;2023-01-19T06:34:08;22.30;;;11.13;;
32094;SDS011;18608;53.688;10.748;2023-01-19T06:36:35;18.37;;;11.57;;
32094;SDS011;18608;53.688;10.748;2023-01-19T06:39:00;18.17;;;11.83;;
32094;SDS011;18608;53.688;10.748;2023-01-19T06:41:29;18.93;;;11.90;;
32094;SDS011;18608;53.688;10.748;2023-01-19T06:43:57;19.93;;;12.30;;
32094;SDS011;18608;53.688;10.748;2023-01-19T06:46:23;23.73;;;11.80;;
32094;SDS011;18608;53.688;10.748;2023-01-19T06:48:50;21.10;;;13.33;;
32094;SDS011;18608;53.688;10.748;2023-01-19T06:51:15;24.30;;;13.27;;
32094;SDS011;18608;53.688;10.748;2023-01-19T06:53:41;18.03;;;12.93;;
32094;SDS011;18608;53.688;10.748;2023-01-19T06:56:07;16.80;;;11.40;;
32094;SDS011;18608;53.688;10.748;2023-01-19T06:58:34;19.47;;;12.07;;
32094;SDS011;18608;53.688;10.748;2023-01-19T07:01:03;18.50;;;12.90;;
32094;SDS011;18608;53.688;10.748;2023-01-19T07:03:30;24.03;;;13.27;;
32094;SDS011;18608;53.688;10.748;2023-01-19T07:05:56;20.07;;;12.00;;
32094;SDS011;18608;53.688;10.748;2023-01-19T07:08:22;20.03;;;11.70;;
32094;SDS011;18608;53.688;10.748;2023-01-19T07:10:48;18.50;;;13.40;;
32094;SDS011;18608;53.688;10.748;2023-01-19T07:13:14;26.67;;;13.90;;
32094;SDS011;18608;53.688;10.748;2023-01-19T07:15:40;20.10;;;12.37;;
32094;SDS011;18608;53.688;10.748;2023-01-19T07:18:06;24.10;;;13.43;;
32094;SDS011;18608;53.688;10.748;2023-01-19T07:20:35;19.73;;;11.57;;
32094;SDS011;18608;53.688;10.748;2023-01-19T07:23:01;21.37;;;12.23;;
32094;SDS011;18608;53.688;10.748;2023-01-19T07:25:27;18.40;;;11.97;;
32094;SDS011;18608;53.688;10.748;2023-01-19T07:27:57;18.50;;;13.10;;
32094;SDS011;18608;53.688;10.748;2023-01-19T07:30:23;19.33;;;12.37;;
32094;SDS011;18608;53.688;10.748;2023-01-19T07:32:49;20.70;;;13.60;;
32094;SDS011;18608;53.688;10.748;2023-01-19T07:35:14;18.27;;;12.60;;
32094;SDS011;18608;53.688;10.748;2023-01-19T07:37:40;21.10;;;13.80;;
32094;SDS011;18608;53.688;10.748;2023-01-19T07:40:05;24.63;;;13.87;;
32094;SDS011;18608;53.688;10.748;2023-01-19T07:42:32;24.93;;;12.60;;
32094;SDS011;18608;53.688;10.748;2023-01-19T07:44:57;22.30;;;13.60;;
32094;SDS011;18608;53.688;10.748;2023-01-19T07:47:23;21.60;;;13.60;;
32094;SDS011;18608;53.688;10.748;2023-01-19T07:49:48;22.80;;;12.60;;
32094;SDS011;18608;53.688;10.748;2023-01-19T07:52:14;25.27;;;13.60;;
32094;SDS011;18608;53.688;10.748;2023-01-19T07:54:39;16.63;;;10.50;;
32094;SDS011;18608;53.688;10.748;2023-01-19T07:57:05;24.47;;;12.63;;
32094;SDS011;18608;53.688;10.748;2023-01-19T07:59:31;24.57;;;14.03;;
32094;SDS011;18608;53.688;10.748;2023-01-19T08:01:57;24.53;;;12.87;;
32094;SDS011;18608;53.688;10.748;2023-01-19T08:04:24;20.10;;;12.50;;
32094;SDS011;18608;53.688;10.748;2023-01-19T08:06:53;19.03;;;12.20;;
32094;SDS011;18608;53.688;10.748;2023-01-19T08:09:19;21.20;;;13.20;;
32094;SDS011;18608;53.688;10.748;2023-01-19T08:11:45;20.07;;;13.13;;
32094;SDS011;18608;53.688;10.748;2023-01-19T08:14:11;26.47;;;12.90;;
32094;SDS011;18608;53.688;10.748;2023-01-19T08:16:36;20.93;;;12.10;;
32094;SDS011;18608;53.688;10.748;2023-01-19T08:19:02;22.70;;;13.17;;
32094;SDS011;18608;53.688;10.748;2023-01-19T08:21:28;20.63;;;13.07;;
32094;SDS011;18608;53.688;10.748;2023-01-19T08:23:54;35.17;;;12.70;;
32094;SDS011;18608;53.688;10.748;2023-01-19T08:26:27;15.77;;;11.33;;
32094;SDS011;18608;53.688;10.748;2023-01-19T08:28:59;21.13;;;12.50;;
32094;SDS011;18608;53.688;10.748;2023-01-19T08:31:26;21.73;;;12.13;;
32094;SDS011;18608;53.688;10.748;2023-01-19T08:33:52;20.90;;;12.77;;
32094;SDS011;18608;53.688;10.748;2023-01-19T08:36:18;17.60;;;12.93;;
32094;SDS011;18608;53.688;10.748;2023-01-19T08:38:44;22.23;;;14.13;;
32094;SDS011;18608;53.688;10.748;2023-01-19T08:41:10;18.50;;;12.03;;
32094;SDS011;18608;53.688;10.748;2023-01-19T08:43:37;28.67;;;15.10;;
32094;SDS011;18608;53.688;10.748;2023-01-19T08:46:02;21.03;;;11.63;;
32094;SDS011;18608;53.688;10.748;2023-01-19T08:48:29;23.57;;;13.47;;
32094;SDS011;18608;53.688;10.748;2023-01-19T08:50:54;21.90;;;12.80;;
32094;SDS011;18608;53.688;10.748;2023-01-19T08:53:20;24.10;;;13.57;;
32094;SDS011;18608;53.688;10.748;2023-01-19T08:55:53;21.50;;;13.50;;
32094;SDS011;18608;53.688;10.748;2023-01-19T08:58:21;24.93;;;13.23;;
32094;SDS011;18608;53.688;10.748;2023-01-19T09:00:47;21.70;;;12.87;;
32094;SDS011;18608;53.688;10.748;2023-01-19T09:03:16;22.00;;;12.80;;
32094;SDS011;18608;53.688;10.748;2023-01-19T09:05:42;23.73;;;13.50;;
32094;SDS011;18608;53.688;10.748;2023-01-19T09:08:11;24.07;;;13.70;;
32094;SDS011;18608;53.688;10.748;2023-01-19T09:10:38;22.50;;;13.37;;
32094;SDS011;18608;53.688;10.748;2023-01-19T09:13:09;21.90;;;14.30;;
32094;SDS011;18608;53.688;10.748;2023-01-19T09:15:36;21.67;;;13.83;;
32094;SDS011;18608;53.688;10.748;2023-01-19T09:18:03;25.57;;;15.73;;
32094;SDS011;18608;53.688;10.748;2023-01-19T09:20:29;27.77;;;15.97;;
32094;SDS011;18608;53.688;10.748;2023-01-19T09:22:57;27.30;;;14.10;;
32094;SDS011;18608;53.688;10.748;2023-01-19T09:25:23;23.03;;;14.23;;
32094;SDS011;18608;53.688;10.748;2023-01-19T09:27:49;25.17;;;13.90;;
32094;SDS011;18608;53.688;10.748;2023-01-19T09:30:15;25.13;;;14.40;;
32094;SDS011;18608;53.688;10.748;2023-01-19T09:32:41;22.30;;;13.73;;
32094;SDS011;18608;53.688;10.748;2023-01-19T09:35:07;32.97;;;17.17;;
32094;SDS011;18608;53.688;10.748;2023-01-19T09:37:33;30.27;;;15.47;;
32094;SDS011;18608;53.688;10.748;2023-01-19T09:39:59;19.63;;;12.97;;
32094;SDS011;18608;53.688;10.748;2023-01-19T09:42:43;32.23;;;13.50;;
32094;SDS011;18608;53.688;10.748;2023-01-19T09:45:15;25.97;;;14.00;;
32094;SDS011;18608;53.688;10.748;2023-01-19T09:47:46;28.23;;;16.17;;
32094;SDS011;18608;53.688;10.748;2023-01-19T09:50:35;23.20;;;13.60;;
32094;SDS011;18608;53.688;10.748;2023-01-19T09:53:04;20.97;;;14.50;;
32094;SDS011;18608;53.688;10.748;2023-01-19T09:55:44;26.13;;;15.07;;
32094;SDS011;18608;53.688;10.748;2023-01-19T09:58:13;24.20;;;13.90;;
32094;SDS011;18608;53.688;10.748;2023-01-19T10:00:42;28.67;;;14.60;;
32094;SDS011;18608;53.688;10.748;2023-01-19T10:03:15;25.00;;;13.30;;
32094;SDS011;18608;53.688;10.748;2023-01-19T10:05:46;31.43;;;14.20;;
32094;SDS011;18608;53.688;10.748;2023-01-19T10:08:40;23.37;;;14.93;;
32094;SDS011;18608;53.688;10.748;2023-01-19T10:11:25;22.53;;;13.60;;
32094;SDS011;18608;53.688;10.748;2023-01-19T10:13:59;24.03;;;13.90;;
32094;SDS011;18608;53.688;10.748;2023-01-19T10:16:45;31.10;;;12.30;;
32094;SDS011;18608;53.688;10.748;2023-01-19T10:19:25;22.23;;;13.37;;
32094;SDS011;18608;53.688;10.748;2023-01-19T10:21:56;23.83;;;13.17;;
32094;SDS011;18608;53.688;10.748;2023-01-19T10:24:25;23.83;;;13.13;;
32094;SDS011;18608;53.688;10.748;2023-01-19T10:26:54;20.43;;;12.97;;
32094;SDS011;18608;53.688;10.748;2023-01-19T10:29:21;19.90;;;12.33;;
32094;SDS011;18608;53.688;10.748;2023-01-19T10:32:05;22.07;;;12.87;;
32094;SDS011;18608;53.688;10.748;2023-01-19T10:34:33;23.30;;;13.47;;
32094;SDS011;18608;53.688;10.748;2023-01-19T10:42:36;22.27;;;12.93;;
32094;SDS011;18608;53.688;10.748;2023-01-19T10:45:36;22.73;;;11.07;;
32094;SDS011;18608;53.688;10.748;2023-01-19T10:48:03;17.77;;;10.80;;
32094;SDS011;18608;53.688;10.748;2023-01-19T10:50:31;13.47;;;8.87;;
32094;SDS011;18608;53.688;10.748;2023-01-19T10:53:00;13.70;;;10.10;;
32094;SDS011;18608;53.688;10.748;2023-01-19T10:55:29;17.63;;;12.00;;
32094;SDS011;18608;53.688;10.748;2023-01-19T10:58:01;24.00;;;11.70;;
32094;SDS011;18608;53.688;10.748;2023-01-19T11:03:04;12.53;;;9.23;;
32094;SDS011;18608;53.688;10.748;2023-01-19T11:05:48;15.23;;;11.67;;
32094;SDS011;18608;53.688;10.748;2023-01-19T11:08:21;17.47;;;10.40;;
32094;SDS011;18608;53.688;10.748;2023-01-19T11:10:52;14.10;;;10.20;;
32094;SDS011;18608;53.688;10.748;2023-01-19T11:13:23;15.90;;;10.20;;
32094;SDS011;18608;53.688;10.748;2023-01-19T11:18:22;15.80;;;10.90;;
32094;SDS011;18608;53.688;10.748;2023-01-19T11:20:53;20.67;;;10.97;;
32094;SDS011;18608;53.688;10.748;2023-01-19T11:23:23;15.43;;;10.30;;
32094;SDS011;18608;53.688;10.748;2023-01-19T11:25:51;12.90;;;9.87;;
32094;SDS011;18608;53.688;10.748;2023-01-19T11:28:21;11.27;;;9.53;;
32094;SDS011;18608;53.688;10.748;2023-01-19T11:31:02;21.57;;;11.07;;
32094;SDS011;18608;53.688;10.748;2023-01-19T11:33:42;22.27;;;10.63;;
32094;SDS011;18608;53.688;10.748;2023-01-19T11:36:23;16.50;;;9.50;;
32094;SDS011;18608;53.688;10.748;2023-01-19T11:38:55;15.60;;;10.10;;
32094;SDS011;18608;53.688;10.748;2023-01-19T11:41:35;15.23;;;9.40;;
32094;SDS011;18608;53.688;10.748;2023-01-19T11:46:52;15.60;;;10.20;;
32094;SDS011;18608;53.688;10.748;2023-01-19T11:52:52;15.17;;;10.10;;
32094;SDS011;18608;53.688;10.748;2023-01-19T11:57:52;13.67;;;9.73;;
32094;SDS011;18608;53.688;10.748;2023-01-19T12:03:07;13.70;;;9.77;;
32094;SDS011;18608;53.688;10.748;2023-01-19T12:06:06;13.47;;;10.03;;
32094;SDS011;18608;53.688;10.748;2023-01-19T12:08:44;13.10;;;10.23;;
32094;SDS011;18608;53.688;10.748;2023-01-19T12:11:26;12.20;;;9.80;;
32094;SDS011;18608;53.688;10.748;2023-01-19T12:13:59;14.10;;;10.50;;
32094;SDS011;18608;53.688;10.748;2023-01-19T12:16:28;15.80;;;10.47;;
32094;SDS011;18608;53.688;10.748;2023-01-19T12:18:57;15.63;;;10.50;;
32094;SDS011;18608;53.688;10.748;2023-01-19T12:21:25;17.40;;;10.00;;
32094;SDS011;18608;53.688;10.748;2023-01-19T12:26:43;12.53;;;9.70;;
32094;SDS011;18608;53.688;10.748;2023-01-19T12:29:16;16.27;;;11.10;;
32094;SDS011;18608;53.688;10.748;2023-01-19T12:31:44;10.40;;;8.83;;
32094;SDS011;18608;53.688;10.748;2023-01-19T12:34:37;12.57;;;9.43;;
32094;SDS011;18608;53.688;10.748;2023-01-19T12:37:05;17.37;;;9.27;;
32094;SDS011;18608;53.688;10.748;2023-01-19T12:40:02;14.17;;;11.13;;
32094;SDS011;18608;53.688;10.748;2023-01-19T12:45:28;21.23;;;10.40;;
32094;SDS011;18608;53.688;10.748;2023-01-19T12:47:56;15.90;;;10.70;;
32094;SDS011;18608;53.688;10.748;2023-01-19T12:50:23;13.07;;;8.67;;
32094;SDS011;18608;53.688;10.748;2023-01-19T12:52:50;13.23;;;9.50;;
32094;SDS011;18608;53.688;10.748;2023-01-19T12:55:25;13.70;;;9.67;;
32094;SDS011;18608;53.688;10.748;2023-01-19T12:57:59;12.37;;;10.00;;
32094;SDS011;18608;53.688;10.748;2023-01-19T13:00:37;15.97;;;10.23;;
32094;SDS011;18608;53.688;10.748;2023-01-19T13:08:17;18.77;;;10.03;;
32094;SDS011;18608;53.688;10.748;2023-01-19T13:21:26;13.37;;;10.07;;
32094;SDS011;18608;53.688;10.748;2023-01-19T13:23:59;13.93;;;9.50;;
32094;SDS011;18608;53.688;10.748;2023-01-19T13:26:30;13.53;;;9.50;;
32094;SDS011;18608;53.688;10.748;2023-01-19T13:29:06;15.03;;;10.63;;
32094;SDS011;18608;53.688;10.748;2023-01-19T13:31:50;15.17;;;10.60;;
32094;SDS011;18608;53.688;10.748;2023-01-19T13:34:26;16.60;;;10.67;;
32094;SDS011;18608;53.688;10.748;2023-01-19T13:36:55;15.10;;;9.37;;
32094;SDS011;18608;53.688;10.748;2023-01-19T13:39:27;19.80;;;11.93;;
32094;SDS011;18608;53.688;10.748;2023-01-19T13:41:56;16.77;;;9.53;;
32094;SDS011;18608;53.688;10.748;2023-01-19T13:44:29;17.37;;;11.83;;
32094;SDS011;18608;53.688;10.748;2023-01-19T13:47:06;15.70;;;10.20;;
32094;SDS011;18608;53.688;10.748;2023-01-19T13:49:41;15.23;;;10.23;;
32094;SDS011;18608;53.688;10.748;2023-01-19T13:54:47;16.30;;;11.50;;
32094;SDS011;18608;53.688;10.748;2023-01-19T13:57:30;13.03;;;10.03;;
32094;SDS011;18608;53.688;10.748;2023-01-19T14:00:09;18.97;;;10.30;;
32094;SDS011;18608;53.688;10.748;2023-01-19T14:02:53;14.40;;;10.37;;
32094;SDS011;18608;53.688;10.748;2023-01-19T14:10:26;16.50;;;10.60;;
32094;SDS011;18608;53.688;10.748;2023-01-19T14:12:58;17.97;;;12.30;;
32094;SDS011;18608;53.688;10.748;2023-01-19T14:15:25;21.60;;;11.87;;
32094;SDS011;18608;53.688;10.748;2023-01-19T14:20:33;13.30;;;9.77;;
32094;SDS011;18608;53.688;10.748;2023-01-19T14:23:01;15.87;;;10.33;;
32094;SDS011;18608;53.688;10.748;2023-01-19T14:25:28;17.40;;;12.40;;
32094;SDS011;18608;53.688;10.748;2023-01-19T14:30:56;21.20;;;11.67;;
32094;SDS011;18608;53.688;10.748;2023-01-19T14:33:31;14.60;;;10.67;;
32094;SDS011;18608;53.688;10.748;2023-01-19T14:36:06;16.40;;;10.77;;
32094;SDS011;18608;53.688;10.748;2023-01-19T14:38:57;20.30;;;13.50;;
32094;SDS011;18608;53.688;10.748;2023-01-19T14:43:59;29.43;;;17.33;;
32094;SDS011;18608;53.688;10.748;2023-01-19T14:46:25;21.00;;;14.10;;
32094;SDS011;18608;53.688;10.748;2023-01-19T14:48:52;13.80;;;10.73;;
32094;SDS011;18608;53.688;10.748;2023-01-19T14:51:22;16.43;;;11.13;;
32094;SDS011;18608;53.688;10.748;2023-01-19T14:53:51;16.77;;;12.30;;
32094;SDS011;18608;53.688;10.748;2023-01-19T14:56:23;19.37;;;11.50;;
32094;SDS011;18608;53.688;10.748;2023-01-19T14:58:54;18.30;;;11.63;;
32094;SDS011;18608;53.688;10.748;2023-01-19T15:01:21;17.43;;;10.70;;
32094;SDS011;18608;53.688;10.748;2023-01-19T15:03:48;17.43;;;10.70;;
32094;SDS011;18608;53.688;10.748;2023-01-19T15:06:18;18.03;;;10.63;;
32094;SDS011;18608;53.688;10.748;2023-01-19T15:08:45;17.43;;;11.47;;
32094;SDS011;18608;53.688;10.748;2023-01-19T15:13:48;20.23;;;12.70;;
32094;SDS011;18608;53.688;10.748;2023-01-19T15:16:15;21.40;;;11.70;;
32094;SDS011;18608;53.688;10.748;2023-01-19T15:18:41;16.63;;;11.33;;
32094;SDS011;18608;53.688;10.748;2023-01-19T15:21:13;17.37;;;11.20;;
32094;SDS011;18608;53.688;10.748;2023-01-19T15:23:40;18.63;;;11.33;;
32094;SDS011;18608;53.688;10.748;2023-01-19T15:26:06;20.67;;;12.23;;
32094;SDS011;18608;53.688;10.748;2023-01-19T15:28:31;23.47;;;12.40;;
32094;SDS011;18608;53.688;10.748;2023-01-19T15:30:58;28.13;;;13.97;;
32094;SDS011;18608;53.688;10.748;2023-01-19T15:33:25;22.23;;;12.43;;
32094;SDS011;18608;53.688;10.748;2023-01-19T15:35:54;19.73;;;11.80;;
32094;SDS011;18608;53.688;10.748;2023-01-19T15:38:20;21.03;;;13.40;;
32094;SDS011;18608;53.688;10.748;2023-01-19T15:40:46;22.70;;;13.43;;
32094;SDS011;18608;53.688;10.748;2023-01-19T15:43:12;20.53;;;12.20;;
32094;SDS011;18608;53.688;10.748;2023-01-19T15:45:57;20.67;;;11.97;;
32094;SDS011;18608;53.688;10.748;2023-01-19T15:48:25;19.30;;;11.43;;
32094;SDS011;18608;53.688;10.748;2023-01-19T15:50:51;19.97;;;14.83;;